Time;durP1;ratioP1;P1;durP2;ratioP2;P2;SDS_P1;SDS_P2;PMS_P1;PMS_P2;Temp;Humidity;BMP_temperature;BMP_pressure;BME280_temperature;BME280_humidity;BME280_pressure;Samples;Min_cycle;Max_cycle;Signal;HPM_P1;HPM_P2
2022/05/26 00:02:24;;;;;;;5.72;3.13;;;16.20;74.50;;;;;;5098723;28;20529;-68
2022/05/26 00:04:50;;;;;;;4.97;3.60;;;16.20;74.40;;;;;;5090346;28;20025;-66
2022/05/26 00:07:16;;;;;;;6.28;3.50;;;16.20;74.50;;;;;;5088326;28;20032;-66
2022/05/26 00:09:42;;;;;;;5.45;3.97;;;16.20;74.60;;;;;;5096467;28;20035;-66
2022/05/26 00:12:10;;;;;;;8.27;5.15;;;16.20;74.90;;;;;;5090180;28;20172;-66
2022/05/26 00:14:36;;;;;;;6.07;3.85;;;16.20;75.20;;;;;;5091453;28;20570;-66
2022/05/26 00:17:01;;;;;;;7.10;4.32;;;16.10;75.20;;;;;;5097243;28;20020;-66
2022/05/26 00:19:27;;;;;;;7.07;5.13;;;16.20;75.30;;;;;;5092091;28;20024;-67
2022/05/26 00:21:53;;;;;;;7.90;5.45;;;16.10;75.80;;;;;;5094828;28;20024;-67
2022/05/26 00:24:19;;;;;;;6.93;4.72;;;16.10;76.00;;;;;;5105082;28;20384;-67
2022/05/26 00:26:45;;;;;;;7.10;4.63;;;16.00;76.20;;;;;;5099322;28;20356;-65
2022/05/26 00:29:12;;;;;;;6.43;5.15;;;16.00;76.20;;;;;;5084411;28;20441;-66
2022/05/26 00:31:38;;;;;;;8.32;5.70;;;16.00;76.50;;;;;;5088167;28;20495;-67
2022/05/26 00:34:03;;;;;;;9.57;7.60;;;16.00;76.60;;;;;;5073026;28;20032;-67
2022/05/26 00:36:38;;;;;;;8.10;5.90;;;15.90;77.00;;;;;;5079580;28;20027;-68
2022/05/26 00:39:09;;;;;;;7.93;5.97;;;15.90;76.80;;;;;;5093102;28;20514;-68
2022/05/26 00:41:38;;;;;;;8.60;6.70;;;15.90;77.10;;;;;;5089156;28;20048;-68
2022/05/26 00:44:04;;;;;;;8.90;6.20;;;15.90;77.20;;;;;;5094182;28;20039;-67
2022/05/26 00:46:38;;;;;;;7.13;5.80;;;15.90;77.30;;;;;;5086361;28;20028;-66
2022/05/26 00:49:08;;;;;;;7.35;5.90;;;15.90;77.40;;;;;;5088041;28;20027;-67
2022/05/26 00:51:36;;;;;;;8.85;6.40;;;15.90;77.40;;;;;;5089240;28;20052;-67
2022/05/26 00:54:07;;;;;;;8.80;6.18;;;15.90;77.70;;;;;;5078795;28;20027;-66
2022/05/26 00:56:54;;;;;;;9.52;7.00;;;15.90;77.60;;;;;;5085731;28;20030;-66
2022/05/26 00:59:45;;;;;;;8.32;6.80;;;15.90;78.10;;;;;;5080913;28;20029;-66
2022/05/26 01:02:13;;;;;;;6.57;5.57;;;15.90;77.90;;;;;;5082298;28;20705;-66
2022/05/26 01:04:55;;;;;;;7.25;6.10;;;15.90;77.70;;;;;;5088122;28;20043;-67
2022/05/26 01:07:27;;;;;;;7.70;6.43;;;15.90;77.60;;;;;;5089673;28;20036;-66
2022/05/26 01:09:53;;;;;;;8.38;6.13;;;15.90;77.90;;;;;;5065021;28;20035;-66
2022/05/26 01:12:18;;;;;;;6.95;5.50;;;15.90;78.00;;;;;;5081230;28;20028;-66
2022/05/26 01:14:50;;;;;;;7.72;5.75;;;15.90;78.10;;;;;;5096537;28;20020;-67
2022/05/26 01:17:40;;;;;;;8.03;6.00;;;15.90;78.10;;;;;;5094280;28;20018;-68
2022/05/26 01:20:20;;;;;;;9.05;7.13;;;15.90;78.20;;;;;;5080619;28;20274;-68
2022/05/26 01:22:49;;;;;;;9.07;6.80;;;15.90;78.40;;;;;;5064248;28;20032;-68
2022/05/26 01:25:33;;;;;;;9.93;6.70;;;15.90;78.40;;;;;;5084931;28;20047;-68
2022/05/26 01:28:36;;;;;;;7.95;5.30;;;15.90;78.50;;;;;;5070469;28;20028;-68
2022/05/26 01:31:24;;;;;;;8.00;6.65;;;15.90;78.40;;;;;;5092248;28;20028;-68
2022/05/26 01:34:10;;;;;;;9.98;7.55;;;15.90;78.60;;;;;;5098997;28;20359;-66
2022/05/26 01:37:00;;;;;;;8.23;6.20;;;15.80;78.80;;;;;;5108806;28;20112;-66
2022/05/26 01:39:56;;;;;;;10.18;7.80;;;15.80;79.00;;;;;;5063047;28;20281;-67
2022/05/26 01:42:47;;;;;;;9.38;6.72;;;15.80;79.10;;;;;;5093622;28;20040;-67
2022/05/26 01:45:23;;;;;;;7.43;5.47;;;15.80;79.10;;;;;;5089753;28;20024;-67
2022/05/26 01:48:14;;;;;;;8.45;6.78;;;15.80;79.00;;;;;;5092242;28;20032;-67
2022/05/26 01:50:58;;;;;;;9.82;7.53;;;15.80;79.00;;;;;;5092422;28;20024;-67
2022/05/26 01:53:52;;;;;;;9.85;6.85;;;15.80;79.20;;;;;;5092865;28;20035;-67
2022/05/26 01:56:51;;;;;;;10.27;8.18;;;15.80;79.10;;;;;;5087891;28;20062;-68
2022/05/26 01:59:26;;;;;;;7.63;6.18;;;15.80;79.00;;;;;;5092862;28;20390;-68
2022/05/26 02:01:57;;;;;;;10.32;6.45;;;15.90;78.90;;;;;;5088910;28;20586;-68
2022/05/26 02:04:28;;;;;;;8.45;5.78;;;15.90;78.80;;;;;;5078659;28;20024;-68
2022/05/26 02:07:00;;;;;;;8.32;5.45;;;15.90;78.70;;;;;;5101004;28;20019;-68
2022/05/26 02:09:32;;;;;;;9.02;6.75;;;15.90;78.60;;;;;;5073675;28;20030;-68
2022/05/26 02:12:26;;;;;;;9.95;7.00;;;15.90;78.60;;;;;;5095360;28;20028;-67
2022/05/26 02:15:18;;;;;;;11.80;7.53;;;15.90;78.50;;;;;;5087613;28;20028;-68
2022/05/26 02:17:56;;;;;;;11.73;7.50;;;15.90;78.90;;;;;;5086066;28;20420;-68
2022/05/26 02:20:29;;;;;;;9.13;5.97;;;15.90;78.90;;;;;;5088580;28;20024;-68
2022/05/26 02:23:23;;;;;;;8.85;6.20;;;15.90;78.90;;;;;;5092763;28;20028;-68
2022/05/26 02:25:49;;;;;;;10.50;6.32;;;15.90;78.90;;;;;;5089607;28;20103;-68
2022/05/26 02:28:15;;;;;;;10.70;7.07;;;15.80;78.80;;;;;;5085066;28;20104;-68
2022/05/26 02:30:42;;;;;;;11.50;7.10;;;15.90;79.00;;;;;;5080884;28;20031;-68
2022/05/26 02:33:11;;;;;;;10.60;6.47;;;15.80;79.00;;;;;;5096668;28;20024;-69
2022/05/26 02:35:40;;;;;;;8.05;5.00;;;15.90;78.90;;;;;;5089402;28;20490;-68
2022/05/26 02:38:15;;;;;;;12.25;7.20;;;15.90;78.80;;;;;;5085823;28;20032;-67
2022/05/26 02:40:42;;;;;;;9.43;5.40;;;15.90;79.00;;;;;;5098387;28;20027;-67
2022/05/26 02:43:12;;;;;;;10.43;5.68;;;15.90;78.90;;;;;;5096977;28;20078;-67
2022/05/26 02:45:59;;;;;;;11.18;6.40;;;15.90;78.80;;;;;;5088733;28;20040;-67
2022/05/26 02:48:36;;;;;;;10.48;5.70;;;15.90;78.80;;;;;;5091617;28;20043;-67
2022/05/26 02:51:15;;;;;;;13.55;7.18;;;15.90;78.70;;;;;;5074297;28;20024;-67
2022/05/26 02:54:02;;;;;;;11.45;6.43;;;16.00;78.70;;;;;;5095733;28;20386;-68
2022/05/26 02:56:34;;;;;;;16.15;7.80;;;16.00;78.70;;;;;;5040489;28;20032;-68
2022/05/26 02:59:24;;;;;;;13.00;6.15;;;15.90;78.70;;;;;;5087263;28;20490;-67
2022/05/26 03:02:14;;;;;;;10.35;5.90;;;15.90;78.70;;;;;;5097976;28;20382;-68
2022/05/26 03:04:45;;;;;;;9.30;5.13;;;16.00;78.60;;;;;;5079190;28;20024;-68
2022/05/26 03:07:22;;;;;;;8.20;4.80;;;16.00;78.60;;;;;;5084676;28;20036;-68
2022/05/26 03:09:48;;;;;;;9.68;5.13;;;16.00;78.50;;;;;;5079683;28;20496;-68
2022/05/26 03:12:39;;;;;;;8.25;5.43;;;16.00;78.60;;;;;;5082837;28;20036;-68
2022/05/26 03:15:07;;;;;;;10.63;5.50;;;16.00;78.50;;;;;;5077376;28;20043;-68
2022/05/26 03:17:34;;;;;;;14.77;7.32;;;16.00;78.40;;;;;;5070173;28;20054;-67
2022/05/26 03:20:00;;;;;;;9.32;5.35;;;16.00;78.60;;;;;;5085691;28;20471;-67
2022/05/26 03:22:25;;;;;;;13.52;6.32;;;16.00;78.60;;;;;;5090662;28;20069;-67
2022/05/26 03:24:51;;;;;;;15.90;6.93;;;16.00;78.60;;;;;;5092124;28;20082;-67
2022/05/26 03:27:17;;;;;;;12.35;5.78;;;15.90;78.60;;;;;;5087065;28;20430;-67
2022/05/26 03:29:43;;;;;;;12.82;6.00;;;15.90;78.60;;;;;;5082687;28;20110;-67
2022/05/26 03:32:09;;;;;;;11.07;5.55;;;15.90;78.60;;;;;;5094776;28;20028;-68
2022/05/26 03:42:49;;;;;;;12.45;5.35;;;15.90;78.90;;;;;;5086420;28;20039;-68
2022/05/26 03:45:18;;;;;;;9.63;5.13;;;15.90;78.90;;;;;;5086602;28;20086;-67
2022/05/26 03:47:43;;;;;;;10.40;4.95;;;15.90;78.90;;;;;;5089050;28;20027;-67
2022/05/26 03:50:09;;;;;;;11.60;5.03;;;15.90;78.80;;;;;;5072985;28;20036;-67
2022/05/26 03:52:35;;;;;;;15.90;6.28;;;15.90;78.90;;;;;;5085288;28;20024;-67
2022/05/26 03:55:01;;;;;;;11.02;5.05;;;15.90;79.00;;;;;;5085614;28;20024;-67
2022/05/26 03:57:29;;;;;;;12.55;5.30;;;15.90;79.10;;;;;;5087262;28;20628;-67
2022/05/26 03:59:54;;;;;;;10.90;5.57;;;15.80;79.20;;;;;;5086734;28;20397;-68
2022/05/26 04:02:20;;;;;;;14.43;5.97;;;15.80;79.30;;;;;;5092522;28;20042;-67
2022/05/26 04:04:46;;;;;;;15.85;5.80;;;15.80;79.60;;;;;;5083848;28;21132;-68
2022/05/26 04:07:12;;;;;;;9.13;4.30;;;15.70;79.70;;;;;;5078911;28;20031;-67
2022/05/26 04:09:39;;;;;;;15.45;5.80;;;15.80;79.60;;;;;;5085868;28;20024;-67
2022/05/26 04:12:06;;;;;;;11.95;5.45;;;15.70;79.70;;;;;;5080371;28;20501;-67
2022/05/26 04:14:32;;;;;;;12.82;4.93;;;15.70;79.70;;;;;;5087290;28;20020;-67
2022/05/26 04:16:58;;;;;;;11.15;4.05;;;15.80;79.60;;;;;;5080470;28;20091;-67
2022/05/26 04:19:24;;;;;;;10.75;5.32;;;15.90;79.70;;;;;;5089997;28;20036;-67
2022/05/26 04:24:35;;;;;;;14.80;5.82;;;15.90;79.30;;;;;;5091240;28;20117;-68
2022/05/26 04:27:00;;;;;;;10.93;4.50;;;15.90;79.40;;;;;;5089031;28;20138;-68
2022/05/26 04:29:27;;;;;;;12.20;4.43;;;15.90;79.30;;;;;;5098879;28;20557;-68
2022/05/26 04:31:52;;;;;;;13.07;5.22;;;15.90;79.40;;;;;;5092863;28;20043;-67
2022/05/26 04:34:18;;;;;;;10.65;4.55;;;15.90;79.40;;;;;;5091234;28;20024;-67
2022/05/26 04:36:45;;;;;;;11.88;4.80;;;15.90;79.30;;;;;;5086711;28;20494;-68
2022/05/26 04:39:10;;;;;;;14.32;5.53;;;15.90;79.20;;;;;;5105837;28;20023;-68
2022/05/26 04:41:36;;;;;;;17.48;4.80;;;16.00;79.20;;;;;;5100130;28;20412;-68
2022/05/26 04:44:01;;;;;;;12.48;4.65;;;15.90;79.20;;;;;;5090026;28;20024;-67
2022/05/26 04:46:27;;;;;;;11.38;4.60;;;16.00;79.30;;;;;;5087874;28;20035;-68
2022/05/26 04:48:52;;;;;;;8.98;3.30;;;16.00;79.30;;;;;;5090452;28;20032;-67
2022/05/26 04:51:18;;;;;;;13.23;4.57;;;16.00;79.20;;;;;;5088023;28;20039;-67
2022/05/26 04:53:44;;;;;;;12.13;4.07;;;16.00;79.10;;;;;;5088230;28;20437;-67
2022/05/26 04:56:10;;;;;;;9.52;4.03;;;16.10;79.10;;;;;;5076196;28;20537;-67
2022/05/26 04:58:35;;;;;;;9.85;3.72;;;16.10;79.00;;;;;;5090287;28;20024;-67
2022/05/26 05:01:11;;;;;;;13.85;5.32;;;16.10;79.00;;;;;;5089540;28;20023;-68
2022/05/26 05:03:36;;;;;;;14.23;4.50;;;16.10;79.20;;;;;;5097165;28;20076;-67
2022/05/26 05:06:02;;;;;;;16.23;5.35;;;16.10;79.30;;;;;;5080640;28;20428;-68
2022/05/26 05:08:28;;;;;;;8.95;4.05;;;16.10;79.40;;;;;;5095447;28;20046;-68
2022/05/26 05:10:53;;;;;;;13.05;4.15;;;16.10;79.30;;;;;;5091474;28;20020;-68
2022/05/26 05:13:19;;;;;;;11.50;4.22;;;16.10;79.20;;;;;;5091690;28;20032;-68
2022/05/26 05:15:55;;;;;;;12.73;4.25;;;16.20;79.10;;;;;;5086276;28;20100;-68
2022/05/26 05:18:21;;;;;;;14.30;4.70;;;16.20;79.10;;;;;;5088712;28;20024;-67
2022/05/26 05:20:47;;;;;;;16.63;5.38;;;16.20;79.10;;;;;;5081806;28;20069;-68
2022/05/26 05:23:13;;;;;;;13.18;4.28;;;16.20;79.10;;;;;;5087306;28;20024;-67
2022/05/26 05:25:43;;;;;;;16.08;4.82;;;16.20;79.00;;;;;;5096288;28;20510;-68
2022/05/26 05:28:14;;;;;;;9.63;3.70;;;16.30;79.00;;;;;;5086791;28;20024;-68
2022/05/26 05:30:43;;;;;;;10.77;3.97;;;16.30;78.90;;;;;;5087875;28;20482;-67
2022/05/26 05:33:16;;;;;;;8.05;2.97;;;16.40;78.80;;;;;;5082522;28;20020;-68
2022/05/26 05:35:54;;;;;;;12.18;4.10;;;16.40;78.60;;;;;;5094163;28;20016;-68
2022/05/26 05:38:20;;;;;;;10.80;3.97;;;16.60;78.30;;;;;;5087811;28;20462;-68
2022/05/26 05:40:46;;;;;;;12.77;4.55;;;16.60;78.10;;;;;;5084801;28;20021;-69
2022/05/26 05:43:12;;;;;;;10.88;3.90;;;16.60;78.10;;;;;;5089149;28;20103;-68
2022/05/26 05:45:39;;;;;;;10.55;3.53;;;16.70;78.10;;;;;;5088803;28;20124;-68
2022/05/26 05:48:05;;;;;;;8.90;3.28;;;16.70;77.90;;;;;;5088766;28;20024;-67
2022/05/26 05:50:31;;;;;;;12.27;4.10;;;16.80;77.80;;;;;;5084218;28;20119;-68
2022/05/26 05:52:56;;;;;;;15.75;3.95;;;16.70;77.80;;;;;;5095938;28;20161;-69
2022/05/26 05:55:23;;;;;;;12.00;3.88;;;16.70;77.70;;;;;;5096890;28;20479;-68
2022/05/26 05:57:48;;;;;;;9.63;3.72;;;16.70;77.70;;;;;;5081822;28;20028;-68
2022/05/26 06:00:14;;;;;;;11.13;4.10;;;16.80;77.70;;;;;;5084878;28;20070;-69
2022/05/26 06:02:40;;;;;;;11.05;3.60;;;16.80;77.60;;;;;;5087469;28;20036;-68
2022/05/26 06:05:06;;;;;;;10.23;3.50;;;16.90;77.50;;;;;;5089755;28;20023;-68
2022/05/26 06:07:32;;;;;;;8.95;3.00;;;16.80;77.20;;;;;;5079536;28;20039;-68
2022/05/26 06:09:58;;;;;;;8.25;2.78;;;17.00;77.10;;;;;;5092971;28;20513;-68
2022/05/26 06:12:23;;;;;;;8.70;2.85;;;17.30;76.60;;;;;;5083192;28;20378;-68
2022/05/26 06:14:49;;;;;;;8.18;3.20;;;17.50;75.80;;;;;;5088846;28;20031;-69
2022/05/26 06:17:15;;;;;;;7.78;2.97;;;17.50;75.40;;;;;;5065046;28;20414;-68
2022/05/26 06:19:42;;;;;;;11.40;3.70;;;17.50;75.20;;;;;;5090583;28;20023;-68
2022/05/26 06:22:13;;;;;;;9.43;2.75;;;17.40;75.00;;;;;;5093457;28;20103;-68
2022/05/26 06:24:39;;;;;;;8.68;3.03;;;17.50;75.10;;;;;;5083878;28;20029;-68
2022/05/26 06:29:49;;;;;;;9.60;3.33;;;17.50;74.90;;;;;;5086223;28;20524;-68
2022/05/26 06:29:54;;;;;;;9.23;3.30;;;17.50;74.80;;;;;;5099106;28;20078;-68
2022/05/26 06:37:50;;;;;;;9.88;3.08;;;17.70;74.30;;;;;;5090252;28;20031;-67
2022/05/26 06:40:16;;;;;;;7.32;2.90;;;17.90;73.80;;;;;;5091825;28;20028;-68
2022/05/26 06:42:44;;;;;;;7.75;2.75;;;18.30;73.20;;;;;;5086617;28;20052;-68
2022/05/26 06:45:11;;;;;;;7.57;2.63;;;18.30;72.50;;;;;;5090845;28;20105;-68
2022/05/26 06:47:36;;;;;;;6.97;2.95;;;18.30;72.40;;;;;;5085210;28;20034;-67
2022/05/26 06:50:02;;;;;;;9.48;3.13;;;18.30;72.10;;;;;;5094864;28;20110;-67
2022/05/26 06:52:28;;;;;;;8.27;2.63;;;18.20;72.10;;;;;;5094741;28;20478;-67
2022/05/26 06:54:54;;;;;;;8.60;2.88;;;18.20;72.20;;;;;;5083211;28;20024;-68
2022/05/26 06:57:20;;;;;;;9.38;3.08;;;18.30;72.10;;;;;;5087641;28;20081;-67
2022/05/26 06:59:45;;;;;;;11.32;3.05;;;18.50;71.80;;;;;;5094400;28;20028;-67
2022/05/26 07:02:12;;;;;;;9.18;2.58;;;18.60;70.90;;;;;;5092383;28;20103;-67
2022/05/26 07:04:39;;;;;;;9.70;2.97;;;18.90;70.50;;;;;;5081770;28;20040;-67
2022/05/26 07:07:06;;;;;;;5.88;2.20;;;19.10;69.70;;;;;;5082712;28;20020;-67
2022/05/26 07:09:31;;;;;;;8.10;2.30;;;19.20;69.00;;;;;;5082568;28;20042;-67
2022/05/26 07:11:58;;;;;;;8.55;2.55;;;19.30;68.60;;;;;;5072888;28;20533;-67
2022/05/26 07:14:24;;;;;;;7.03;2.17;;;19.30;68.10;;;;;;5090989;28;20027;-67
2022/05/26 07:16:50;;;;;;;6.93;2.33;;;19.50;67.90;;;;;;5091609;28;20048;-67
2022/05/26 07:19:17;;;;;;;8.88;2.60;;;19.60;67.40;;;;;;5085170;28;20043;-67
2022/05/26 07:21:46;;;;;;;7.65;2.22;;;19.80;65.90;;;;;;5091127;28;20070;-68
2022/05/26 07:24:13;;;;;;;8.07;2.20;;;19.80;65.40;;;;;;5085941;28;20012;-68
2022/05/26 07:26:39;;;;;;;7.35;2.20;;;19.90;65.00;;;;;;5094338;28;20032;-68
2022/05/26 07:29:04;;;;;;;4.65;1.52;;;20.10;64.70;;;;;;5084278;28;20687;-67
2022/05/26 07:31:30;;;;;;;7.85;2.10;;;20.10;64.40;;;;;;5091582;28;20035;-67
2022/05/26 07:33:56;;;;;;;6.60;2.00;;;20.20;63.60;;;;;;5084876;28;20028;-66
2022/05/26 07:42:01;;;;;;;6.38;1.80;;;20.50;61.60;;;;;;5088660;28;20413;-68
2022/05/26 07:44:28;;;;;;;5.35;1.42;;;20.60;61.30;;;;;;5100322;28;20355;-68
2022/05/26 07:46:54;;;;;;;6.20;1.85;;;20.80;60.90;;;;;;5100879;28;20432;-67
2022/05/26 07:49:19;;;;;;;3.83;1.50;;;20.90;60.00;;;;;;5085123;28;20020;-67
2022/05/26 07:51:46;;;;;;;5.25;1.88;;;21.00;59.20;;;;;;5069214;28;20054;-67
2022/05/26 07:54:11;;;;;;;6.43;1.70;;;21.00;58.90;;;;;;5085019;28;20032;-68
2022/05/26 07:56:38;;;;;;;5.10;1.42;;;21.10;58.60;;;;;;5087193;28;20024;-67
2022/05/26 07:59:04;;;;;;;4.57;1.30;;;21.00;58.50;;;;;;5068961;28;20419;-67
2022/05/26 08:01:31;;;;;;;3.92;1.50;;;21.00;58.70;;;;;;5089413;28;20099;-67
2022/05/26 08:03:57;;;;;;;3.75;1.50;;;21.00;58.40;;;;;;5089998;28;20059;-67
2022/05/26 08:06:23;;;;;;;4.63;1.48;;;21.10;58.60;;;;;;5091312;28;20067;-68
2022/05/26 08:08:49;;;;;;;4.82;1.60;;;21.20;58.00;;;;;;5088248;28;20119;-68
2022/05/26 08:11:14;;;;;;;2.78;1.20;;;21.40;57.50;;;;;;5090214;28;20024;-67
2022/05/26 08:13:40;;;;;;;3.78;1.23;;;21.40;57.00;;;;;;5091551;28;20027;-68
2022/05/26 08:16:06;;;;;;;3.83;1.42;;;21.60;56.70;;;;;;5096281;28;20038;-67
2022/05/26 08:18:32;;;;;;;3.72;1.30;;;21.70;56.30;;;;;;5089776;28;20754;-67
2022/05/26 08:21:06;;;;;;;4.35;1.70;;;21.80;56.30;;;;;;5090452;28;20027;-66
2022/05/26 08:23:32;;;;;;;4.55;1.45;;;21.90;55.20;;;;;;5085869;28;20094;-66
2022/05/26 08:25:57;;;;;;;4.43;1.40;;;22.00;54.70;;;;;;5083769;28;20020;-65
2022/05/26 08:28:24;;;;;;;6.55;1.40;;;21.90;54.30;;;;;;5084995;28;20456;-66
2022/05/26 08:30:49;;;;;;;3.13;1.23;;;21.80;54.50;;;;;;5087842;28;20512;-66
2022/05/26 08:33:15;;;;;;;2.83;1.40;;;21.60;54.90;;;;;;5082691;28;20058;-67
2022/05/26 08:35:40;;;;;;;2.70;1.00;;;21.50;55.00;;;;;;5083516;28;20020;-66
2022/05/26 08:38:06;;;;;;;4.80;1.52;;;21.70;55.00;;;;;;5085121;28;20064;-66
2022/05/26 08:40:47;;;;;;;2.40;1.30;;;21.60;53.60;;;;;;5086164;28;20034;-66
2022/05/26 08:43:23;;;;;;;2.78;1.27;;;21.50;54.10;;;;;;5081076;28;20482;-67
2022/05/26 08:45:51;;;;;;;3.72;1.10;;;21.50;53.70;;;;;;5080376;28;20494;-67
2022/05/26 08:48:40;;;;;;;4.05;1.00;;;21.40;53.00;;;;;;5087363;28;20039;-68
2022/05/26 08:51:09;;;;;;;3.17;0.90;;;21.30;53.10;;;;;;5084980;28;20147;-67
2022/05/26 08:53:37;;;;;;;1.30;0.95;;;21.20;53.30;;;;;;5086380;28;20158;-67
2022/05/26 08:56:04;;;;;;;2.00;1.00;;;21.20;53.40;;;;;;5084673;28;20103;-68
2022/05/26 08:58:46;;;;;;;2.35;1.23;;;21.20;53.50;;;;;;5087880;28;20054;-67
2022/05/26 09:01:16;;;;;;;2.63;1.15;;;21.30;54.00;;;;;;5088430;28;20395;-67
2022/05/26 09:03:42;;;;;;;3.83;1.35;;;21.30;53.80;;;;;;5082044;28;20417;-68
2022/05/26 09:06:15;;;;;;;3.58;1.30;;;21.30;53.90;;;;;;5089748;28;20410;-68
2022/05/26 09:14:21;;;;;;;4.45;1.88;;;21.40;55.40;;;;;;5086974;28;20060;-68
2022/05/26 09:16:46;;;;;;;4.38;1.67;;;21.60;55.30;;;;;;5099786;28;20074;-68
2022/05/26 09:19:17;;;;;;;5.60;1.70;;;21.70;55.40;;;;;;5087355;28;20418;-68
2022/05/26 09:21:44;;;;;;;3.67;1.45;;;21.70;54.80;;;;;;5093890;28;20416;-67
2022/05/26 09:24:22;;;;;;;3.03;1.50;;;21.50;54.50;;;;;;5088066;28;20019;-67
2022/05/26 09:27:11;;;;;;;4.85;1.35;;;21.30;54.60;;;;;;5093515;28;20096;-68
2022/05/26 09:29:37;;;;;;;3.92;1.23;;;21.10;55.10;;;;;;5072619;28;20514;-68
2022/05/26 09:32:05;;;;;;;3.05;1.20;;;21.00;55.60;;;;;;5090724;28;20067;-67
2022/05/26 09:34:33;;;;;;;5.15;1.60;;;21.10;55.80;;;;;;5094346;28;20035;-68
2022/05/26 09:37:07;;;;;;;3.25;1.42;;;21.20;55.70;;;;;;5084549;28;20444;-68
2022/05/26 09:39:42;;;;;;;6.38;2.20;;;21.40;55.60;;;;;;5081178;28;20016;-69
2022/05/26 09:42:17;;;;;;;4.75;1.50;;;21.30;55.20;;;;;;5095888;28;20103;-67
2022/05/26 09:45:10;;;;;;;3.65;1.60;;;21.30;55.50;;;;;;5079398;28;21434;-67
2022/05/26 09:47:53;;;;;;;4.50;1.98;;;21.20;55.80;;;;;;5064020;28;20081;-68
2022/05/26 09:50:33;;;;;;;4.15;1.40;;;21.20;55.50;;;;;;5079541;28;20024;-67
2022/05/26 09:53:00;;;;;;;2.50;1.20;;;21.20;55.60;;;;;;5084994;28;20028;-68
2022/05/26 09:55:50;;;;;;;3.33;1.35;;;21.40;55.70;;;;;;5085281;28;20035;-67
2022/05/26 09:58:28;;;;;;;2.08;0.90;;;21.60;55.20;;;;;;5080725;28;20021;-67
2022/05/26 10:00:56;;;;;;;3.20;1.52;;;21.50;54.60;;;;;;5090487;28;20026;-67
2022/05/26 10:04:03;;;;;;;3.45;1.20;;;21.40;54.70;;;;;;5089766;28;20024;-68
2022/05/26 10:06:40;;;;;;;2.95;1.27;;;21.50;54.70;;;;;;5043795;28;20052;-67
2022/05/26 10:09:23;;;;;;;3.40;1.00;;;21.50;53.70;;;;;;5047203;28;20036;-68
2022/05/26 10:12:15;;;;;;;3.17;1.02;;;21.40;52.70;;;;;;5071104;28;20113;-67
2022/05/26 10:15:00;;;;;;;4.03;1.10;;;21.30;52.80;;;;;;5077508;28;20080;-68
2022/05/26 10:17:45;;;;;;;2.35;1.00;;;21.40;53.30;;;;;;5080385;28;20049;-67
2022/05/26 10:20:29;;;;;;;2.47;1.00;;;21.60;53.20;;;;;;5086134;28;20028;-68
2022/05/26 10:23:10;;;;;;;2.42;1.05;;;21.80;52.70;;;;;;5086860;28;20015;-68
2022/05/26 10:25:57;;;;;;;3.10;1.10;;;21.90;52.30;;;;;;5096771;28;20020;-67
2022/05/26 10:28:48;;;;;;;2.05;0.98;;;22.00;51.10;;;;;;5092476;28;20541;-68
2022/05/26 10:31:41;;;;;;;2.47;0.90;;;22.20;50.80;;;;;;5058112;28;20031;-68
2022/05/26 10:34:14;;;;;;;3.28;1.00;;;22.30;50.70;;;;;;5081464;28;20032;-68
2022/05/26 10:37:11;;;;;;;4.70;1.10;;;22.60;50.80;;;;;;5080189;28;20020;-68
2022/05/26 10:39:45;;;;;;;1.85;0.90;;;22.50;50.10;;;;;;5084278;28;20020;-68
2022/05/26 10:42:17;;;;;;;4.43;1.33;;;22.40;50.40;;;;;;5085440;28;20024;-68
2022/05/26 10:44:52;;;;;;;3.00;1.10;;;22.30;50.50;;;;;;5083258;28;20705;-68
2022/05/26 10:47:27;;;;;;;2.65;1.13;;;22.40;51.10;;;;;;5069691;28;20118;-68
2022/05/26 10:50:18;;;;;;;4.13;1.20;;;22.40;50.20;;;;;;5091871;28;20011;-67
2022/05/26 10:52:49;;;;;;;3.75;1.15;;;22.20;49.60;;;;;;5089195;28;20047;-67
2022/05/26 10:55:36;;;;;;;6.80;1.77;;;22.10;50.00;;;;;;5087013;28;20027;-68
2022/05/26 10:58:25;;;;;;;3.30;0.95;;;22.10;50.50;;;;;;5085469;28;20020;-68
2022/05/26 11:00:57;;;;;;;4.75;1.38;;;22.20;51.00;;;;;;5076094;28;21535;-67
2022/05/26 11:03:42;;;;;;;2.47;1.10;;;22.30;51.20;;;;;;5076901;28;20032;-68
2022/05/26 11:06:25;;;;;;;5.97;1.10;;;22.50;51.30;;;;;;5084053;28;20670;-67
2022/05/26 11:09:10;;;;;;;2.78;1.05;;;22.50;50.50;;;;;;5090283;28;20032;-68
2022/05/26 11:11:43;;;;;;;2.75;0.90;;;22.50;50.40;;;;;;5090444;28;20554;-68
2022/05/26 11:17:23;;;;;;;4.53;1.25;;;22.50;49.70;;;;;;5097294;28;20038;-68
2022/05/26 11:20:01;;;;;;;4.05;1.13;;;22.50;49.70;;;;;;5089539;28;20028;-68
2022/05/26 11:22:27;;;;;;;3.65;1.20;;;22.50;49.30;;;;;;5082383;28;20025;-67
2022/05/26 11:24:56;;;;;;;3.88;1.70;;;22.50;49.20;;;;;;5065647;28;20107;-67
2022/05/26 11:27:21;;;;;;;2.92;1.17;;;22.50;49.60;;;;;;5086193;28;20139;-68
2022/05/26 11:29:56;;;;;;;2.92;1.10;;;22.60;49.90;;;;;;5092740;28;20107;-67
2022/05/26 11:38:29;;;;;;;3.13;1.10;;;22.70;49.40;;;;;;5086020;28;20032;-68
2022/05/26 11:41:25;;;;;;;3.15;1.08;;;22.70;49.10;;;;;;5094249;28;20382;-69
2022/05/26 11:44:10;;;;;;;7.18;1.30;;;22.80;48.70;;;;;;5089374;28;20436;-68
2022/05/26 11:46:41;;;;;;;3.25;1.10;;;23.00;48.20;;;;;;5091123;28;20023;-67
2022/05/26 11:49:09;;;;;;;3.67;1.20;;;23.10;47.60;;;;;;5070703;28;20115;-68
2022/05/26 11:51:42;;;;;;;2.58;1.30;;;23.10;47.10;;;;;;5090220;28;20028;-68
2022/05/26 11:54:31;;;;;;;2.38;1.00;;;23.10;47.20;;;;;;5087048;28;20059;-68
2022/05/26 11:56:56;;;;;;;2.90;1.00;;;23.20;47.40;;;;;;5088113;28;20032;-68
2022/05/26 11:59:34;;;;;;;2.45;1.23;;;23.20;47.20;;;;;;5089960;28;20648;-68
2022/05/26 12:01:59;;;;;;;3.92;1.10;;;23.20;46.90;;;;;;5070508;28;21489;-68
2022/05/26 12:04:33;;;;;;;3.33;0.98;;;23.30;46.70;;;;;;5094891;28;20093;-69
2022/05/26 12:07:23;;;;;;;2.55;0.95;;;23.30;46.60;;;;;;5085533;28;20085;-68
2022/05/26 12:09:53;;;;;;;3.35;1.30;;;23.20;46.40;;;;;;5087618;28;20028;-67
2022/05/26 12:12:22;;;;;;;3.38;1.02;;;23.30;46.50;;;;;;5080983;28;20039;-68
2022/05/26 12:14:47;;;;;;;2.60;0.93;;;23.30;46.10;;;;;;5091094;28;20069;-68
2022/05/26 12:17:32;;;;;;;3.30;0.85;;;23.40;46.30;;;;;;5093438;28;20032;-68
2022/05/26 12:20:09;;;;;;;3.90;1.02;;;23.60;45.50;;;;;;5088571;28;20023;-69
2022/05/26 12:22:55;;;;;;;3.08;0.70;;;23.60;45.00;;;;;;5088305;28;20037;-68
2022/05/26 12:25:34;;;;;;;1.30;0.68;;;23.60;45.20;;;;;;5078309;28;20036;-68
2022/05/26 12:28:29;;;;;;;1.77;0.93;;;23.80;45.60;;;;;;5088250;28;20481;-68
2022/05/26 12:30:54;;;;;;;2.25;0.90;;;24.00;45.30;;;;;;5092574;28;20091;-68
2022/05/26 12:33:32;;;;;;;2.08;1.05;;;24.10;45.00;;;;;;5086984;28;20120;-68
2022/05/26 12:36:20;;;;;;;2.70;1.00;;;24.10;44.70;;;;;;5085804;28;20425;-67
2022/05/26 12:39:04;;;;;;;3.53;1.10;;;23.90;44.60;;;;;;5086357;28;20024;-68
2022/05/26 12:41:47;;;;;;;2.00;0.75;;;23.80;44.50;;;;;;5087062;28;20024;-69
2022/05/26 12:44:44;;;;;;;2.35;1.02;;;23.90;44.90;;;;;;5083655;28;20035;-68
2022/05/26 12:47:18;;;;;;;2.80;0.90;;;23.80;44.80;;;;;;5081378;28;20040;-68
2022/05/26 12:50:09;;;;;;;3.60;0.90;;;23.80;44.70;;;;;;5083791;28;20025;-68
2022/05/26 12:52:54;;;;;;;2.23;0.90;;;23.80;44.80;;;;;;5086548;28;20027;-68
2022/05/26 12:55:19;;;;;;;2.88;1.08;;;24.00;44.60;;;;;;5085742;28;20036;-69
2022/05/26 12:57:53;;;;;;;2.55;0.70;;;24.00;44.00;;;;;;5088904;28;20032;-69
2022/05/26 13:00:23;;;;;;;6.72;0.98;;;24.00;44.10;;;;;;5081056;28;20115;-69
2022/05/26 13:02:53;;;;;;;2.08;0.75;;;24.00;44.20;;;;;;5083678;28;20024;-68
2022/05/26 13:05:19;;;;;;;1.58;0.80;;;23.90;44.10;;;;;;5089577;28;20094;-69
2022/05/26 13:07:54;;;;;;;2.15;0.70;;;23.70;44.50;;;;;;5088102;28;20505;-69
2022/05/26 13:10:27;;;;;;;3.67;0.95;;;23.70;44.80;;;;;;5090728;28;20055;-68
2022/05/26 13:12:53;;;;;;;4.25;1.50;;;23.70;44.90;;;;;;5084846;28;20406;-68
2022/05/26 13:15:24;;;;;;;3.05;1.08;;;23.50;45.00;;;;;;5089446;28;20040;-68
2022/05/26 13:17:51;;;;;;;4.43;1.03;;;23.40;45.30;;;;;;5093952;28;20024;-68
2022/05/26 13:20:31;;;;;;;2.20;1.23;;;23.30;45.50;;;;;;5074160;28;20032;-69
2022/05/26 13:22:56;;;;;;;2.03;0.80;;;23.20;45.80;;;;;;5089619;28;20140;-68
2022/05/26 13:25:29;;;;;;;3.90;1.08;;;23.30;46.20;;;;;;5103649;28;20027;-68
2022/05/26 13:28:01;;;;;;;3.47;1.30;;;23.30;46.40;;;;;;5091933;28;20035;-68
2022/05/26 13:33:24;;;;;;;4.32;1.30;;;23.30;46.60;;;;;;5098313;28;19918;-68
2022/05/26 13:36:00;;;;;;;4.18;1.63;;;23.30;46.90;;;;;;5091300;28;20013;-68
2022/05/26 13:38:35;;;;;;;4.07;1.35;;;23.20;46.80;;;;;;5094631;28;20046;-68
2022/05/26 13:41:02;;;;;;;3.67;1.33;;;23.20;47.00;;;;;;5092022;28;20047;-68
2022/05/26 13:43:32;;;;;;;4.45;1.83;;;23.40;47.10;;;;;;5080973;28;20122;-68
2022/05/26 13:45:58;;;;;;;4.13;2.15;;;23.60;46.90;;;;;;5075711;28;20035;-68
2022/05/26 13:48:31;;;;;;;5.20;2.35;;;23.70;46.60;;;;;;5084864;28;20461;-68
2022/05/26 13:51:20;;;;;;;4.30;2.00;;;23.60;46.40;;;;;;5085100;28;20024;-68
2022/05/26 13:53:53;;;;;;;4.95;2.40;;;23.70;46.70;;;;;;5089117;28;20566;-68